Time;durP1;ratioP1;P1;durP2;ratioP2;P2;SDS_P1;SDS_P2;PMS_P1;PMS_P2;Temp;Humidity;BMP_temperature;BMP_pressure;BME280_temperature;BME280_humidity;BME280_pressure;Samples;Min_cycle;Max_cycle;Signal;HPM_P1;HPM_P2
2023/01/30 00:01:44;;;;;;;53.88;34.40;;;;;;;3.44;100.00;101898.88;5032679;28;20029;-74
2023/01/30 00:04:11;;;;;;;51.58;28.58;;;;;;;3.37;100.00;101869.50;5032042;28;20029;-74
2023/01/30 00:06:37;;;;;;;49.65;26.85;;;;;;;3.46;100.00;101885.16;5027117;28;20105;-75
2023/01/30 00:09:03;;;;;;;49.03;29.00;;;;;;;3.49;100.00;101849.13;5023487;28;20433;-74
2023/01/30 00:11:28;;;;;;;48.70;26.88;;;;;;;3.47;100.00;101861.13;5031957;28;20034;-74
2023/01/30 00:13:54;;;;;;;49.05;27.73;;;;;;;3.54;100.00;101872.44;5034925;27;20042;-75
2023/01/30 00:16:20;;;;;;;47.97;27.25;;;;;;;3.51;100.00;101860.34;5031791;28;20038;-75
2023/01/30 00:18:45;;;;;;;49.90;27.73;;;;;;;3.24;100.00;101801.34;5031522;28;20081;-74
2023/01/30 00:21:12;;;;;;;50.50;27.98;;;;;;;3.61;100.00;101833.06;5032094;28;20051;-74
2023/01/30 00:23:38;;;;;;;48.42;27.17;;;;;;;3.64;100.00;101837.41;5031894;28;20041;-74
2023/01/30 00:26:04;;;;;;;50.15;28.35;;;;;;;3.61;100.00;101837.34;5031310;28;20581;-74
2023/01/30 00:28:30;;;;;;;45.30;26.52;;;;;;;3.64;100.00;101848.59;5031601;28;20021;-74
2023/01/30 00:30:56;;;;;;;51.97;27.80;;;;;;;3.57;100.00;101833.84;5035440;27;20464;-74
2023/01/30 00:33:23;;;;;;;49.00;27.65;;;;;;;3.63;100.00;101845.97;5030690;28;20033;-74
2023/01/30 00:35:50;;;;;;;51.78;27.05;;;;;;;3.67;100.00;101861.56;5031039;28;20018;-74
2023/01/30 00:38:16;;;;;;;46.65;26.88;;;;;;;3.70;100.00;101858.19;5031669;28;20038;-75
2023/01/30 00:40:42;;;;;;;51.13;29.02;;;;;;;3.68;100.00;101839.22;5031195;28;20095;-75
2023/01/30 00:48:45;;;;;;;46.42;26.58;;;;;;;3.78;100.00;101833.41;5002840;28;20397;-74
2023/01/30 00:51:10;;;;;;;48.88;28.05;;;;;;;3.89;100.00;101836.19;5031681;28;20025;-75
2023/01/30 00:53:35;;;;;;;50.25;28.00;;;;;;;3.86;100.00;101823.22;5031036;28;20109;-75
2023/01/30 00:56:01;;;;;;;49.95;28.40;;;;;;;3.92;100.00;101821.66;5030662;28;20017;-74
2023/01/30 00:58:26;;;;;;;50.78;27.88;;;;;;;3.90;100.00;101831.06;5031147;28;20042;-74
2023/01/30 01:00:54;;;;;;;48.75;27.27;;;;;;;3.84;100.00;101812.88;5031243;28;20033;-74
2023/01/30 01:03:19;;;;;;;46.92;27.88;;;;;;;3.86;100.00;101812.91;5031474;28;20021;-75
2023/01/30 01:05:45;;;;;;;50.95;27.40;;;;;;;3.85;100.00;101801.72;5035152;27;20036;-74
2023/01/30 01:08:10;;;;;;;48.90;27.77;;;;;;;3.80;100.00;101808.50;5016554;28;20104;-74
2023/01/30 01:10:36;;;;;;;51.30;27.40;;;;;;;3.83;100.00;101813.75;5031335;28;20021;-75
2023/01/30 01:13:02;;;;;;;48.05;28.08;;;;;;;3.91;100.00;101814.75;5030968;28;20045;-74
2023/01/30 01:15:28;;;;;;;48.10;26.92;;;;;;;3.97;100.00;101825.19;5016886;28;20018;-75
2023/01/30 01:17:54;;;;;;;52.08;28.52;;;;;;;3.98;100.00;101821.75;5016146;28;20026;-74
2023/01/30 01:20:20;;;;;;;48.58;28.52;;;;;;;4.00;100.00;101816.63;5017631;28;20466;-75
2023/01/30 01:22:50;;;;;;;47.85;28.10;;;;;;;4.03;100.00;101810.69;5031900;27;20099;-75
2023/01/30 01:25:18;;;;;;;47.30;26.77;;;;;;;4.00;100.00;101808.91;5016907;28;20396;-75
2023/01/30 01:27:43;;;;;;;47.60;28.67;;;;;;;4.05;100.00;101815.00;5031197;28;20037;-75
2023/01/30 01:30:09;;;;;;;50.95;28.70;;;;;;;4.02;100.00;101801.16;5030153;28;20055;-75
2023/01/30 01:32:35;;;;;;;46.17;28.55;;;;;;;4.03;100.00;101795.19;5023486;28;20112;-75
2023/01/30 01:35:00;;;;;;;49.65;28.52;;;;;;;4.12;100.00;101801.41;5023422;28;20457;-75
2023/01/30 01:37:25;;;;;;;45.90;26.48;;;;;;;4.11;100.00;101791.03;5030640;28;20055;-75
2023/01/30 01:42:36;;;;;;;46.97;26.75;;;;;;;4.13;100.00;101785.06;5030261;28;20028;-75
2023/01/30 01:45:10;;;;;;;46.25;26.52;;;;;;;3.92;100.00;101736.53;5030515;28;20412;-75
2023/01/30 01:47:39;;;;;;;48.65;27.50;;;;;;;4.21;100.00;101788.63;5030796;28;20082;-74
2023/01/30 01:50:08;;;;;;;50.30;27.40;;;;;;;4.23;100.00;101780.94;5019691;28;20022;-75
2023/01/30 01:52:33;;;;;;;42.53;26.02;;;;;;;4.23;100.00;101773.19;5027504;28;20100;-75
2023/01/30 01:55:04;;;;;;;45.78;27.75;;;;;;;4.19;100.00;101748.16;5034378;27;20105;-75
2023/01/30 01:57:43;;;;;;;44.30;26.33;;;;;;;4.27;100.00;101758.63;5028839;28;20047;-75
2023/01/30 02:00:15;;;;;;;44.33;24.85;;;;;;;4.28;100.00;101750.88;5030522;28;20460;-75
2023/01/30 02:02:45;;;;;;;47.05;29.05;;;;;;;4.28;100.00;101739.69;5030707;28;20041;-75
2023/01/30 02:05:14;;;;;;;43.17;25.77;;;;;;;4.27;100.00;101732.81;5029885;28;20017;-75
2023/01/30 02:07:46;;;;;;;42.90;25.45;;;;;;;4.32;100.00;101750.13;5030640;28;20026;-75
2023/01/30 02:10:17;;;;;;;47.58;25.27;;;;;;;4.36;100.00;101745.88;5030132;28;20365;-74
2023/01/30 02:12:44;;;;;;;46.08;27.70;;;;;;;4.41;100.00;101750.28;5033011;28;20511;-74
2023/01/30 02:15:10;;;;;;;44.67;24.75;;;;;;;4.34;100.00;101730.34;5030513;28;20033;-75
2023/01/30 02:17:35;;;;;;;44.92;26.70;;;;;;;4.38;100.00;101741.56;5029742;28;20026;-75
2023/01/30 02:20:15;;;;;;;44.65;25.50;;;;;;;4.43;100.00;101735.66;5029967;28;20045;-75
2023/01/30 02:23:05;;;;;;;44.72;24.85;;;;;;;4.43;100.00;101729.63;5030448;28;20029;-75
2023/01/30 02:25:56;;;;;;;46.78;26.70;;;;;;;4.44;100.00;101719.31;5029280;28;20040;-75
2023/01/30 02:28:35;;;;;;;44.60;25.92;;;;;;;4.45;100.00;101708.16;5029755;28;20481;-74
2023/01/30 02:31:28;;;;;;;41.00;25.08;;;;;;;4.40;100.00;101696.88;5033485;27;20060;-75
2023/01/30 02:34:05;;;;;;;44.97;26.20;;;;;;;4.43;100.00;101702.09;5016302;28;20085;-74
2023/01/30 02:36:47;;;;;;;45.35;26.33;;;;;;;4.45;100.00;101705.56;5017291;28;20617;-75
2023/01/30 02:39:20;;;;;;;46.13;28.48;;;;;;;4.45;100.00;101708.16;5018265;28;20031;-74
2023/01/30 02:42:13;;;;;;;47.15;27.23;;;;;;;4.45;100.00;101708.16;5029461;28;20501;-74
2023/01/30 02:44:49;;;;;;;49.85;26.83;;;;;;;4.45;100.00;101713.31;5029951;28;20029;-74
2023/01/30 02:47:22;;;;;;;47.63;29.08;;;;;;;4.35;100.00;101695.06;5032348;27;20028;-74
2023/01/30 02:49:54;;;;;;;48.38;27.20;;;;;;;4.31;100.00;101683.81;5030053;28;20022;-74
2023/01/30 02:52:21;;;;;;;53.97;27.98;;;;;;;4.34;100.00;101683.88;5029162;28;20040;-74
2023/01/30 02:54:46;;;;;;;46.05;27.27;;;;;;;4.41;100.00;101708.06;5029225;28;20025;-74
2023/01/30 02:57:18;;;;;;;53.85;28.95;;;;;;;4.36;100.00;101700.25;5029544;28;20022;-74
2023/01/30 02:59:47;;;;;;;52.45;28.33;;;;;;;4.26;100.00;101688.06;5029717;28;20025;-74
2023/01/30 03:02:43;;;;;;;53.20;27.52;;;;;;;4.35;100.00;101710.53;5029012;28;20033;-74
2023/01/30 03:05:18;;;;;;;48.92;28.92;;;;;;;4.32;100.00;101703.66;5033357;28;20082;-74
2023/01/30 03:07:53;;;;;;;54.97;29.08;;;;;;;4.30;100.00;101695.00;5028830;28;20029;-74
2023/01/30 03:11:00;;;;;;;59.33;31.23;;;;;;;4.28;100.00;101694.09;5029407;28;20113;-74
2023/01/30 03:13:44;;;;;;;54.78;30.35;;;;;;;4.27;100.00;101688.91;5048762;28;20045;-75
2023/01/30 03:16:14;;;;;;;62.22;31.17;;;;;;;4.27;100.00;101686.34;5028807;28;20511;-75
2023/01/30 03:18:41;;;;;;;53.80;29.55;;;;;;;4.20;100.00;101667.31;5029291;28;20041;-75
2023/01/30 03:21:07;;;;;;;54.88;31.52;;;;;;;4.22;100.00;101678.53;5032696;28;20070;-75
2023/01/30 03:23:32;;;;;;;62.20;31.85;;;;;;;4.29;100.00;101676.91;5023458;28;20030;-75
2023/01/30 03:25:58;;;;;;;57.00;31.67;;;;;;;4.30;100.00;101681.22;5021062;28;20030;-75
2023/01/30 03:28:25;;;;;;;59.13;33.10;;;;;;;4.27;100.00;101683.75;5028758;28;20022;-75
2023/01/30 03:30:50;;;;;;;55.58;32.92;;;;;;;4.24;100.00;101682.00;5028796;28;20501;-75
2023/01/30 03:33:16;;;;;;;61.83;32.50;;;;;;;4.23;100.00;101686.28;5029048;28;20021;-75
2023/01/30 03:35:42;;;;;;;56.72;32.45;;;;;;;4.17;100.00;101667.25;5023612;28;20034;-75
2023/01/30 03:38:07;;;;;;;64.10;30.70;;;;;;;4.27;100.00;101684.63;5026347;28;20026;-75
2023/01/30 03:40:33;;;;;;;62.65;31.92;;;;;;;4.25;100.00;101673.44;5028667;28;20085;-75
2023/01/30 03:42:58;;;;;;;66.28;33.03;;;;;;;4.26;100.00;101656.22;5028412;28;20021;-75
2023/01/30 03:45:23;;;;;;;70.47;35.17;;;;;;;4.23;100.00;101649.28;5028930;28;20460;-76
2023/01/30 03:47:48;;;;;;;71.22;34.58;;;;;;;4.25;100.00;101667.38;5030515;28;20110;-75
2023/01/30 03:50:14;;;;;;;84.15;38.03;;;;;;;4.26;100.00;101667.41;5028255;28;20448;-75
2023/01/30 03:52:39;;;;;;;73.22;36.42;;;;;;;4.25;100.00;101659.63;5028924;28;20033;-75
2023/01/30 03:55:05;;;;;;;69.18;32.92;;;;;;;4.23;100.00;101650.16;5032608;28;20053;-76
2023/01/30 03:57:30;;;;;;;71.20;34.60;;;;;;;4.26;100.00;101651.91;5028014;28;20353;-76
2023/01/30 03:59:56;;;;;;;69.43;34.40;;;;;;;4.23;100.00;101657.91;5029332;28;20105;-76
2023/01/30 04:02:24;;;;;;;69.78;35.65;;;;;;;4.28;100.00;101649.34;5028531;28;20038;-76
2023/01/30 04:04:50;;;;;;;69.30;33.40;;;;;;;4.31;100.00;101662.31;5028721;28;20052;-75
2023/01/30 04:07:16;;;;;;;78.20;35.00;;;;;;;4.29;100.00;101657.13;5028567;28;20422;-76
2023/01/30 04:09:41;;;;;;;72.60;35.40;;;;;;;4.33;100.00;101669.22;5028909;28;20072;-76
2023/01/30 04:12:07;;;;;;;71.25;34.47;;;;;;;4.32;100.00;101672.66;5031692;28;20480;-76
2023/01/30 04:14:32;;;;;;;67.05;32.80;;;;;;;4.31;100.00;101646.81;5027924;28;20092;-76
2023/01/30 04:16:57;;;;;;;74.80;36.65;;;;;;;4.42;100.00;101661.63;5028721;28;20108;-76
2023/01/30 04:19:23;;;;;;;78.43;35.08;;;;;;;4.43;100.00;101658.19;5028038;28;20491;-76
2023/01/30 04:21:48;;;;;;;71.32;33.70;;;;;;;4.45;100.00;101666.84;5031668;28;20166;-76
2023/01/30 04:24:13;;;;;;;78.18;33.40;;;;;;;4.51;100.00;101655.72;5020890;28;20472;-76
2023/01/30 04:26:39;;;;;;;84.20;37.70;;;;;;;4.58;100.00;101654.13;5028657;28;20096;-76
2023/01/30 04:29:04;;;;;;;73.55;35.92;;;;;;;4.60;100.00;101644.66;5035767;27;20071;-76
2023/01/30 04:31:29;;;;;;;75.72;35.22;;;;;;;4.55;100.00;101638.56;5031556;28;20025;-76
2023/01/30 04:33:57;;;;;;;73.80;34.80;;;;;;;4.54;100.00;101634.25;5031681;28;20040;-76
2023/01/30 04:36:23;;;;;;;74.15;36.45;;;;;;;4.66;100.00;101647.31;5021630;28;20104;-75
2023/01/30 04:38:48;;;;;;;73.97;34.33;;;;;;;4.64;100.00;101626.66;5030514;28;20513;-76
2023/01/30 04:41:13;;;;;;;76.53;36.22;;;;;;;4.73;100.00;101638.81;5031037;28;20040;-76
2023/01/30 04:43:39;;;;;;;69.90;33.38;;;;;;;4.74;100.00;101644.84;5031543;28;20033;-75
2023/01/30 04:46:04;;;;;;;79.25;35.58;;;;;;;4.74;100.00;101637.97;5036317;27;20094;-75
2023/01/30 04:48:29;;;;;;;69.57;34.05;;;;;;;4.76;100.00;101643.16;5031451;28;20030;-76
2023/01/30 04:50:55;;;;;;;72.82;34.75;;;;;;;4.79;100.00;101656.13;5031838;28;20071;-75
2023/01/30 04:53:21;;;;;;;69.45;34.42;;;;;;;4.83;100.00;101648.41;5030619;28;20032;-75
2023/01/30 04:55:47;;;;;;;65.38;31.27;;;;;;;4.81;100.00;101639.78;5031597;28;20022;-76
2023/01/30 04:58:13;;;;;;;67.90;28.45;;;;;;;4.85;100.00;101638.13;5031180;28;20527;-75
2023/01/30 05:00:38;;;;;;;58.35;29.83;;;;;;;4.88;100.00;101653.66;5030889;28;20025;-75
2023/01/30 05:03:05;;;;;;;63.17;28.83;;;;;;;4.90;100.00;101650.25;5035032;27;20082;-75
2023/01/30 05:05:30;;;;;;;58.00;26.23;;;;;;;4.91;100.00;101640.78;5031015;28;20068;-75
2023/01/30 05:07:56;;;;;;;56.30;26.10;;;;;;;4.93;100.00;101642.50;5031037;28;20059;-75
2023/01/30 05:10:21;;;;;;;52.92;25.50;;;;;;;4.98;100.00;101642.59;5031375;28;20032;-76
2023/01/30 05:12:46;;;;;;;47.67;23.70;;;;;;;5.04;100.00;101657.31;5030713;28;20053;-75
2023/01/30 05:15:12;;;;;;;52.00;22.90;;;;;;;5.05;100.00;101656.44;5030907;28;20033;-75
2023/01/30 05:17:38;;;;;;;50.25;23.00;;;;;;;5.03;100.00;101645.22;5031429;28;20038;-76
2023/01/30 05:20:04;;;;;;;44.70;21.75;;;;;;;5.10;100.00;101652.19;5034480;27;20025;-75
2023/01/30 05:22:30;;;;;;;49.85;21.92;;;;;;;5.15;100.00;101661.75;5030142;28;20604;-75
2023/01/30 05:24:55;;;;;;;41.47;18.95;;;;;;;5.18;100.00;101648.00;5017637;28;20021;-75
2023/01/30 05:27:20;;;;;;;40.08;20.17;;;;;;;5.17;100.00;101646.25;5030366;28;20060;-75
2023/01/30 05:29:46;;;;;;;38.30;18.52;;;;;;;5.17;100.00;101648.84;5030472;28;20029;-75
2023/01/30 05:32:16;;;;;;;36.95;18.33;;;;;;;5.17;100.00;101651.44;5030994;28;20029;-75
2023/01/30 05:34:41;;;;;;;32.40;17.40;;;;;;;5.18;100.00;101637.66;5030965;28;20364;-75
2023/01/30 05:37:06;;;;;;;43.95;16.27;;;;;;;5.14;100.00;101641.91;5029418;28;20028;-75
2023/01/30 05:39:32;;;;;;;30.77;16.80;;;;;;;5.16;100.00;101649.69;5030744;28;20055;-75
2023/01/30 05:41:57;;;;;;;28.10;15.38;;;;;;;5.16;100.00;101641.91;5030457;28;20071;-76
2023/01/30 05:44:23;;;;;;;34.63;14.40;;;;;;;5.17;100.00;101651.44;5030184;28;20068;-75
2023/01/30 05:46:48;;;;;;;31.08;13.57;;;;;;;5.18;100.00;101645.41;5030952;28;20104;-75
2023/01/30 05:49:14;;;;;;;34.33;13.43;;;;;;;5.17;100.00;101638.50;5030262;28;20521;-75
2023/01/30 05:51:39;;;;;;;33.05;13.20;;;;;;;5.19;100.00;101648.84;5030482;28;20041;-75
2023/01/30 05:54:04;;;;;;;34.40;13.98;;;;;;;5.18;100.00;101632.47;5033839;28;20033;-75
2023/01/30 05:56:32;;;;;;;33.00;13.38;;;;;;;5.20;100.00;101629.91;5029566;28;20050;-75
2023/01/30 05:58:59;;;;;;;26.00;12.73;;;;;;;4.99;100.00;101609.84;5030755;28;20051;-75
2023/01/30 06:01:26;;;;;;;26.27;12.57;;;;;;;5.18;100.00;101644.53;5030330;28;20477;-75
2023/01/30 06:03:52;;;;;;;32.05;14.38;;;;;;;5.20;100.00;101661.81;5030031;28;20049;-75
2023/01/30 06:06:18;;;;;;;35.40;12.80;;;;;;;5.23;100.00;101674.78;5030461;28;20452;-75
2023/01/30 06:08:43;;;;;;;27.73;13.38;;;;;;;5.20;100.00;101663.50;5030260;28;20025;-75
2023/01/30 06:11:11;;;;;;;31.75;11.18;;;;;;;5.21;100.00;101671.28;5033039;27;20040;-75
2023/01/30 06:13:37;;;;;;;24.02;12.15;;;;;;;5.19;100.00;101669.53;5030501;28;20051;-75
2023/01/30 06:16:03;;;;;;;27.95;11.75;;;;;;;5.17;100.00;101656.59;5030194;28;20532;-75
2023/01/30 06:18:28;;;;;;;33.22;10.82;;;;;;;5.15;100.00;101677.25;5029440;28;20038;-75
2023/01/30 06:20:54;;;;;;;22.20;9.75;;;;;;;5.16;100.00;101657.44;5030118;28;20488;-75
2023/01/30 06:23:22;;;;;;;23.85;9.93;;;;;;;5.15;100.00;101668.63;5026152;28;20107;-75
2023/01/30 06:25:48;;;;;;;31.40;9.95;;;;;;;5.14;100.00;101677.25;5019831;28;20086;-75
2023/01/30 06:28:15;;;;;;;27.27;9.20;;;;;;;5.14;100.00;101672.06;5029687;28;20476;-75
2023/01/30 06:30:41;;;;;;;21.17;8.48;;;;;;;5.11;100.00;101682.38;5029878;28;20044;-75
2023/01/30 06:33:06;;;;;;;23.92;9.40;;;;;;;5.06;100.00;101691.78;5029619;28;20033;-75
2023/01/30 06:35:32;;;;;;;22.92;8.35;;;;;;;5.02;100.00;101700.34;5028148;28;20029;-75
2023/01/30 06:37:57;;;;;;;15.82;7.78;;;;;;;4.96;100.00;101715.75;5021919;28;20033;-75
2023/01/30 06:40:23;;;;;;;22.98;7.43;;;;;;;4.83;100.00;101710.41;5029245;28;20025;-75
2023/01/30 06:42:49;;;;;;;20.45;6.47;;;;;;;4.74;100.00;101719.75;5029679;28;20494;-75
2023/01/30 06:45:16;;;;;;;15.52;7.18;;;;;;;4.64;100.00;101693.81;5029279;28;20082;-75
2023/01/30 06:47:49;;;;;;;20.90;6.40;;;;;;;4.61;100.00;101679.97;5029687;28;20032;-75
2023/01/30 06:50:16;;;;;;;21.40;6.18;;;;;;;4.23;100.00;101654.44;5027263;28;20428;-75
2023/01/30 06:52:43;;;;;;;27.23;5.97;;;;;;;4.47;100.00;101721.94;5028980;28;20410;-75
2023/01/30 06:55:10;;;;;;;20.77;6.05;;;;;;;4.40;100.00;101712.38;5029680;28;20461;-75
2023/01/30 06:57:35;;;;;;;17.02;5.18;;;;;;;4.33;100.00;101722.59;5029579;28;20029;-75
2023/01/30 07:00:03;;;;;;;21.15;5.10;;;;;;;4.28;100.00;101713.88;5029303;28;20534;-75
2023/01/30 07:02:31;;;;;;;13.43;4.72;;;;;;;4.22;100.00;101706.94;5028911;28;20082;-75
2023/01/30 07:04:56;;;;;;;15.45;5.47;;;;;;;4.21;100.00;101694.84;5032863;27;20457;-75
2023/01/30 07:07:21;;;;;;;20.20;5.10;;;;;;;4.16;100.00;101681.88;5028555;28;20113;-75
2023/01/30 07:09:47;;;;;;;22.65;5.07;;;;;;;4.21;100.00;101697.44;5029465;28;20022;-75
2023/01/30 07:12:12;;;;;;;17.83;4.47;;;;;;;4.14;100.00;101690.44;5028841;28;20065;-75
2023/01/30 07:14:37;;;;;;;16.73;4.80;;;;;;;4.13;100.00;101709.34;5029022;28;20053;-75
2023/01/30 07:17:03;;;;;;;19.52;4.45;;;;;;;4.10;100.00;101709.28;5029495;28;20030;-75
2023/01/30 07:19:28;;;;;;;17.73;4.72;;;;;;;4.09;100.00;101705.00;5028985;28;20457;-75
2023/01/30 07:21:53;;;;;;;12.43;4.15;;;;;;;4.14;100.00;101716.25;5033415;28;20108;-75
2023/01/30 07:24:18;;;;;;;22.05;4.25;;;;;;;4.18;100.00;101720.59;5017690;28;20037;-75
2023/01/30 07:26:46;;;;;;;18.95;4.15;;;;;;;4.09;100.00;101715.31;5026622;28;20104;-75
2023/01/30 07:29:12;;;;;;;18.40;3.75;;;;;;;4.15;100.00;101723.13;5028612;28;20033;-75
2023/01/30 07:31:37;;;;;;;16.58;3.80;;;;;;;4.10;100.00;101715.31;5029237;28;20380;-76
2023/01/30 07:34:02;;;;;;;19.10;4.07;;;;;;;4.16;100.00;101722.31;5029260;28;20033;-75
2023/01/30 07:36:28;;;;;;;18.15;4.85;;;;;;;4.16;100.00;101733.50;5019799;28;20034;-75
2023/01/30 07:38:53;;;;;;;14.88;4.15;;;;;;;4.14;100.00;101730.00;5032437;28;20029;-75
2023/01/30 07:41:18;;;;;;;17.23;4.60;;;;;;;4.12;100.00;101748.88;5028889;28;20108;-75
2023/01/30 07:43:43;;;;;;;19.05;4.90;;;;;;;4.14;100.00;101742.91;5028779;28;20365;-75
2023/01/30 07:46:09;;;;;;;19.20;4.35;;;;;;;4.09;100.00;101741.13;5029034;28;20030;-75
2023/01/30 07:48:34;;;;;;;20.70;4.03;;;;;;;4.07;100.00;101753.13;5037093;28;20033;-75
2023/01/30 07:50:59;;;;;;;24.63;4.28;;;;;;;4.05;100.00;101747.03;5028489;28;20025;-75
2023/01/30 07:53:25;;;;;;;26.00;4.38;;;;;;;4.05;100.00;101754.78;5052540;28;20033;-75
2023/01/30 07:55:50;;;;;;;21.23;4.22;;;;;;;3.99;100.00;101745.25;5031874;28;20026;-75
2023/01/30 07:58:15;;;;;;;20.52;4.00;;;;;;;4.05;100.00;101749.63;5036225;27;20021;-75
2023/01/30 08:00:41;;;;;;;19.20;3.97;;;;;;;4.05;100.00;101747.03;5061133;27;20182;-76
2023/01/30 08:03:15;;;;;;;19.55;4.00;;;;;;;4.04;100.00;101745.31;5031260;28;20108;-75
2023/01/30 08:05:40;;;;;;;19.38;4.15;;;;;;;4.09;100.00;101754.03;5031118;28;20026;-75
2023/01/30 08:08:05;;;;;;;16.35;3.35;;;;;;;4.15;100.00;101754.09;5033083;28;20017;-75
2023/01/30 08:10:30;;;;;;;18.15;3.45;;;;;;;4.13;100.00;101753.22;5062328;27;20025;-75
2023/01/30 08:12:57;;;;;;;21.92;4.05;;;;;;;4.08;100.00;101747.09;5039541;28;20068;-75
2023/01/30 08:15:22;;;;;;;24.80;4.22;;;;;;;4.07;100.00;101750.53;5076582;27;20359;-75
2023/01/30 08:17:55;;;;;;;20.30;4.82;;;;;;;4.13;100.00;101771.28;5083500;27;20025;-75
2023/01/30 08:20:21;;;;;;;25.38;3.55;;;;;;;4.09;100.00;101759.19;5042138;27;20093;-75
2023/01/30 08:22:46;;;;;;;21.55;3.40;;;;;;;4.14;100.00;101765.28;5044000;28;20100;-75
2023/01/30 08:25:12;;;;;;;14.68;3.60;;;;;;;4.14;100.00;101770.44;5038414;28;20033;-75
2023/01/30 08:27:37;;;;;;;19.05;3.55;;;;;;;4.16;100.00;101779.09;5030241;28;20145;-76
2023/01/30 08:30:03;;;;;;;21.63;4.45;;;;;;;4.16;100.00;101776.50;5073502;27;20033;-75
2023/01/30 08:32:28;;;;;;;17.58;3.42;;;;;;;4.24;100.00;101787.81;5042890;27;20029;-75
2023/01/30 08:34:54;;;;;;;21.38;3.78;;;;;;;4.29;100.00;101785.34;5032155;28;20108;-76
2023/01/30 08:37:19;;;;;;;14.45;3.33;;;;;;;4.30;100.00;101784.47;5029952;28;20116;-75
2023/01/30 08:39:45;;;;;;;21.33;4.53;;;;;;;4.15;100.00;101734.34;5060538;27;20048;-76
2023/01/30 08:42:10;;;;;;;22.23;4.30;;;;;;;4.36;100.00;101780.28;5046625;27;20562;-75
2023/01/30 08:44:35;;;;;;;16.48;4.40;;;;;;;4.45;100.00;101787.34;5031555;28;20029;-75
2023/01/30 08:47:01;;;;;;;21.80;3.63;;;;;;;4.45;100.00;101795.94;5035684;27;20027;-75
2023/01/30 08:49:27;;;;;;;19.00;3.40;;;;;;;4.51;100.00;101799.47;5031231;28;20029;-75
2023/01/30 08:51:52;;;;;;;17.88;3.42;;;;;;;4.51;100.00;101794.28;5040489;27;20022;-75
2023/01/30 08:54:17;;;;;;;18.58;3.08;;;;;;;4.55;100.00;101796.09;5030667;28;20029;-75
2023/01/30 08:56:42;;;;;;;20.52;4.10;;;;;;;4.55;100.00;101796.97;5031465;28;20061;-75
2023/01/30 08:59:08;;;;;;;27.50;4.75;;;;;;;4.61;100.00;101799.66;5031047;28;20104;-75
2023/01/30 09:01:33;;;;;;;19.23;3.97;;;;;;;4.66;100.00;101804.88;5031014;28;20124;-74
2023/01/30 09:03:58;;;;;;;21.58;3.83;;;;;;;4.75;100.00;101810.22;5034604;27;20025;-74
2023/01/30 09:06:24;;;;;;;16.63;5.07;;;;;;;4.74;100.00;101802.41;5054897;27;20156;-74
2023/01/30 09:08:49;;;;;;;21.40;4.22;;;;;;;4.86;100.00;101816.41;5030542;28;20426;-74
2023/01/30 09:11:14;;;;;;;14.23;3.60;;;;;;;4.93;100.00;101818.22;5030885;28;20100;-74
2023/01/30 09:13:42;;;;;;;22.17;3.60;;;;;;;4.99;100.00;101826.94;5030644;28;20042;-74
2023/01/30 09:16:09;;;;;;;16.52;3.53;;;;;;;4.98;100.00;101812.28;5031171;28;20082;-74
2023/01/30 09:18:41;;;;;;;18.17;4.15;;;;;;;5.00;100.00;101826.06;5030931;28;20033;-74
2023/01/30 09:21:07;;;;;;;22.77;3.35;;;;;;;5.13;100.00;101825.41;5030916;28;20013;-74
2023/01/30 09:23:33;;;;;;;15.35;3.17;;;;;;;5.13;100.00;101838.34;5025659;28;20453;-74
2023/01/30 09:25:59;;;;;;;24.65;3.33;;;;;;;5.22;100.00;101837.59;5022663;28;20047;-74
2023/01/30 09:28:24;;;;;;;18.85;3.75;;;;;;;5.23;100.00;101823.81;5029917;28;20065;-74
2023/01/30 09:30:50;;;;;;;14.13;3.40;;;;;;;5.31;100.00;101838.63;5031292;28;20109;-74
2023/01/30 09:33:19;;;;;;;19.92;3.63;;;;;;;5.38;100.00;101849.91;5030502;28;20173;-75
2023/01/30 09:35:46;;;;;;;16.42;3.15;;;;;;;5.36;100.00;101831.81;5029451;28;20025;-74
2023/01/30 09:38:11;;;;;;;18.10;3.95;;;;;;;5.39;100.00;101826.66;5024937;28;20071;-75
2023/01/30 09:40:49;;;;;;;13.30;2.95;;;;;;;5.53;100.00;101855.31;5030521;28;20533;-75
2023/01/30 09:43:21;;;;;;;16.17;3.33;;;;;;;5.60;100.00;101858.84;5028860;28;20040;-74
2023/01/30 09:46:11;;;;;;;14.02;3.03;;;;;;;5.75;100.00;101850.38;5030550;28;20400;-74
2023/01/30 09:48:42;;;;;;;20.52;3.72;;;;;;;6.02;100.00;101863.72;5057957;27;20029;-75
2023/01/30 09:51:24;;;;;;;19.27;3.08;;;;;;;6.22;100.00;101857.88;5061311;27;20503;-75
2023/01/30 09:53:55;;;;;;;19.17;4.13;;;;;;;6.29;100.00;101852.78;5035801;27;20061;-74
2023/01/30 09:56:21;;;;;;;17.67;3.67;;;;;;;6.23;100.00;101855.28;5030043;28;20038;-75
2023/01/30 09:58:59;;;;;;;19.77;3.45;;;;;;;6.24;100.00;101857.03;5030768;28;20500;-75
2023/01/30 10:01:40;;;;;;;16.65;2.90;;;;;;;6.28;100.00;101866.59;5030363;28;20413;-74
2023/01/30 10:04:15;;;;;;;22.33;3.55;;;;;;;6.36;100.00;101876.16;5030222;28;20022;-74
2023/01/30 10:06:56;;;;;;;13.48;3.00;;;;;;;6.35;100.00;101871.84;5027552;28;20071;-75
2023/01/30 10:09:29;;;;;;;15.13;3.35;;;;;;;6.40;100.00;101852.00;5033344;28;20017;-75
2023/01/30 10:12:16;;;;;;;19.67;3.40;;;;;;;6.40;100.00;101852.00;5045748;27;20033;-74
2023/01/30 10:15:03;;;;;;;15.18;3.55;;;;;;;6.48;100.00;101879.75;5023950;28;20076;-74
2023/01/30 10:17:45;;;;;;;16.58;2.88;;;;;;;6.51;100.00;101877.19;5024354;28;20072;-74
2023/01/30 10:20:34;;;;;;;12.82;3.08;;;;;;;6.55;100.00;101884.13;5053397;27;20045;-74
2023/01/30 10:23:08;;;;;;;17.40;3.55;;;;;;;6.60;99.00;101871.19;5029382;28;20040;-74
2023/01/30 10:25:45;;;;;;;22.35;4.30;;;;;;;6.66;99.43;101885.94;5015767;28;20037;-74
2023/01/30 10:28:31;;;;;;;14.07;3.38;;;;;;;6.69;98.32;101889.44;5035882;28;20057;-74
2023/01/30 10:31:04;;;;;;;15.35;3.15;;;;;;;6.70;97.42;101888.59;5077905;27;20086;-74
2023/01/30 10:33:45;;;;;;;14.10;3.33;;;;;;;6.73;96.84;101896.38;5029597;27;20029;-73
2023/01/30 10:36:22;;;;;;;22.73;3.42;;;;;;;6.71;94.88;101881.69;5029075;28;20037;-74
2023/01/30 10:38:50;;;;;;;20.15;3.25;;;;;;;6.73;96.16;101873.03;5029473;28;20053;-74
2023/01/30 10:41:44;;;;;;;11.13;2.15;;;;;;;6.83;96.05;101891.28;5031332;28;20029;-74
2023/01/30 10:44:12;;;;;;;;;;;;;;;6.95;96.34;101900.03;5042032;28;20395;-74
2023/01/30 10:46:44;;;;;;;13.00;2.63;;;;;;;6.94;93.09;101897.44;5074760;27;19911;-73
2023/01/30 10:49:50;;;;;;;15.57;3.08;;;;;;;6.95;92.24;101904.34;5040416;28;20025;-76
2023/01/30 10:52:26;;;;;;;13.48;2.97;;;;;;;6.86;91.93;101899.09;5043665;27;20078;-74
2023/01/30 10:55:14;;;;;;;8.38;2.70;;;;;;;6.82;91.70;101907.69;5071293;27;20075;-74
2023/01/30 10:57:48;;;;;;;14.30;3.53;;;;;;;6.72;91.99;101917.97;5031125;27;20539;-74
2023/01/30 11:00:42;;;;;;;17.50;3.33;;;;;;;6.60;93.24;101910.06;5068561;27;20035;-74
2023/01/30 11:03:24;;;;;;;18.23;3.72;;;;;;;6.54;93.83;101915.22;5028540;27;20037;-74
2023/01/30 11:05:52;;;;;;;19.65;3.58;;;;;;;6.42;92.95;101891.75;5025391;28;20439;-74
2023/01/30 11:08:23;;;;;;;11.73;2.83;;;;;;;6.54;91.71;101917.81;5055198;27;20469;-74
2023/01/30 11:10:50;;;;;;;11.60;3.17;;;;;;;6.53;91.86;101926.41;5040258;28;20026;-75
2023/01/30 11:13:19;;;;;;;16.85;3.30;;;;;;;6.49;90.74;101904.78;5040816;28;20045;-75
2023/01/30 11:15:48;;;;;;;15.85;3.35;;;;;;;6.47;90.14;101910.78;5029766;28;20025;-75
2023/01/30 11:18:15;;;;;;;14.48;2.83;;;;;;;6.55;88.78;101915.22;5031257;28;20074;-75
2023/01/30 11:20:44;;;;;;;19.20;3.50;;;;;;;6.54;90.80;101915.22;5103870;28;20054;-74
2023/01/30 11:23:30;;;;;;;19.88;2.97;;;;;;;6.57;89.72;101905.75;5014473;28;20109;-74
2023/01/30 11:25:57;;;;;;;17.05;3.22;;;;;;;6.53;88.94;101900.50;5031569;28;20057;-74
2023/01/30 11:28:24;;;;;;;16.10;3.35;;;;;;;6.60;88.59;101917.84;5028655;28;20022;-75
2023/01/30 11:30:55;;;;;;;15.05;2.70;;;;;;;6.66;87.87;101912.72;5045013;27;20033;-74